createdAt,value
2019-03-26T05:01:02.978Z,0.00
2019-03-26T05:02:03.152Z,0.00
2019-03-26T05:03:03.322Z,0.00
2019-03-26T05:04:03.490Z,0.00
2019-03-26T05:05:03.662Z,0.00
2019-03-26T05:06:03.830Z,0.00
2019-03-26T05:07:04.006Z,0.00
2019-03-26T05:08:04.170Z,0.00
2019-03-26T05:09:04.342Z,0.00
2019-03-26T05:10:04.512Z,5.63
2019-03-26T05:11:04.684Z,5.63
2019-03-26T05:12:04.874Z,5.63
2019-03-26T05:13:05.026Z,5.63
2019-03-26T05:14:05.198Z,5.63
2019-03-26T05:15:05.368Z,5.63
2019-03-26T05:16:05.537Z,5.63
2019-03-26T05:17:05.708Z,5.63
2019-03-26T05:18:05.877Z,5.63
2019-03-26T05:19:06.046Z,5.63
2019-03-26T05:20:06.222Z,5.63
2019-03-26T05:21:06.386Z,11.25
2019-03-26T05:22:06.557Z,11.25
2019-03-26T05:23:06.727Z,11.25
2019-03-26T05:24:06.962Z,11.25
2019-03-26T05:25:07.069Z,11.25
2019-03-26T05:26:07.238Z,11.25
2019-03-26T05:27:07.409Z,16.88
2019-03-26T05:28:07.582Z,16.88
2019-03-26T05:29:07.749Z,16.88
2019-03-26T05:30:07.920Z,16.88
2019-03-26T05:31:08.091Z,22.50
2019-03-26T05:32:08.259Z,22.50
2019-03-26T05:33:08.430Z,22.50
2019-03-26T05:34:08.597Z,28.13
2019-03-26T05:35:08.769Z,28.13
2019-03-26T05:36:08.939Z,28.13
2019-03-26T05:37:09.113Z,28.13
2019-03-26T05:38:09.279Z,28.13
2019-03-26T05:39:09.450Z,28.13
2019-03-26T05:40:09.621Z,28.13
2019-03-26T05:41:10.588Z,33.75
2019-03-26T05:42:09.959Z,33.75
2019-03-26T05:43:10.131Z,33.75
2019-03-26T05:44:10.305Z,33.75
2019-03-26T05:45:10.472Z,39.38
2019-03-26T05:46:10.642Z,39.38
2019-03-26T05:47:10.811Z,39.38
2019-03-26T05:48:10.981Z,39.38
2019-03-26T05:49:11.151Z,45.00
2019-03-26T05:50:11.321Z,50.63
2019-03-26T05:51:11.490Z,50.63
2019-03-26T05:52:11.664Z,56.25
2019-03-26T05:53:11.829Z,56.25
2019-03-26T05:54:12.003Z,61.88
2019-03-26T05:55:12.167Z,61.88
2019-03-26T05:56:12.340Z,67.50
2019-03-26T05:57:12.542Z,67.50
2019-03-26T05:58:12.680Z,67.50
2019-03-26T05:59:12.849Z,67.50
2019-03-26T06:00:13.025Z,67.50
2019-03-26T06:01:13.187Z,61.88
2019-03-26T06:02:16.473Z,61.88
2019-03-26T06:03:13.528Z,67.50
2019-03-26T06:04:13.779Z,67.50
2019-03-26T06:05:13.868Z,73.13
2019-03-26T06:06:14.037Z,73.13
2019-03-26T06:07:14.220Z,67.50
2019-03-26T06:08:14.378Z,67.50
2019-03-26T06:09:14.549Z,73.13
2019-03-26T06:10:14.723Z,73.13
2019-03-26T06:11:14.895Z,73.13
2019-03-26T06:12:15.064Z,78.75
2019-03-26T06:13:15.233Z,78.75
2019-03-26T06:14:15.398Z,78.75
2019-03-26T06:15:15.569Z,84.38
2019-03-26T06:16:15.739Z,90.00
2019-03-26T06:17:15.911Z,90.00
2019-03-26T06:18:16.081Z,95.63
2019-03-26T06:19:16.247Z,106.88
2019-03-26T06:20:16.418Z,112.50
2019-03-26T06:21:16.589Z,106.88
2019-03-26T06:22:16.757Z,101.25
2019-03-26T06:23:16.931Z,90.00
2019-03-26T06:24:17.102Z,90.00
2019-03-26T06:25:17.274Z,90.00
2019-03-26T06:26:17.443Z,95.63
2019-03-26T06:27:17.612Z,101.25
2019-03-26T06:28:17.785Z,112.50
2019-03-26T06:29:17.956Z,123.75
2019-03-26T06:30:18.125Z,135.00
2019-03-26T06:31:18.292Z,140.63
2019-03-26T06:32:18.462Z,146.25
2019-03-26T06:33:18.634Z,151.88
2019-03-26T06:34:18.806Z,163.13
2019-03-26T06:35:18.976Z,163.13
2019-03-26T06:36:19.146Z,157.50
2019-03-26T06:37:19.315Z,146.25
2019-03-26T06:38:19.489Z,140.63
2019-03-26T06:39:19.658Z,146.25
2019-03-26T06:40:19.833Z,146.25
2019-03-26T06:41:20.000Z,140.63
2019-03-26T06:42:20.172Z,135.00
2019-03-26T06:43:20.340Z,123.75
2019-03-26T06:44:20.512Z,106.88
2019-03-26T06:45:20.682Z,95.63
2019-03-26T06:46:20.853Z,90.00
2019-03-26T06:47:21.025Z,84.38
2019-03-26T06:48:21.196Z,78.75
2019-03-26T06:49:21.363Z,73.13
2019-03-26T06:50:21.540Z,73.13
2019-03-26T06:51:21.704Z,73.13
2019-03-26T06:52:21.874Z,67.50
2019-03-26T06:53:22.042Z,67.50
2019-03-26T06:54:22.210Z,67.50
2019-03-26T06:55:22.382Z,73.13
2019-03-26T06:56:22.551Z,73.13
2019-03-26T06:57:34.956Z,78.75
2019-03-26T06:58:22.894Z,90.00
2019-03-26T06:59:23.061Z,95.63
2019-03-26T07:00:23.230Z,101.25
2019-03-26T07:01:23.399Z,101.25
2019-03-26T07:02:23.571Z,101.25
2019-03-26T07:03:23.741Z,101.25
2019-03-26T07:04:23.910Z,123.75
2019-03-26T07:05:24.077Z,129.38
2019-03-26T07:06:24.248Z,118.13
2019-03-26T07:07:31.542Z,106.88
2019-03-26T07:08:24.584Z,101.25
2019-03-26T07:09:24.751Z,95.63
2019-03-26T07:10:24.920Z,90.00
2019-03-26T07:11:25.090Z,84.38
2019-03-26T07:12:25.264Z,78.75
2019-03-26T07:13:25.430Z,78.75
2019-03-26T07:14:25.600Z,73.13
2019-03-26T07:15:25.771Z,73.13
2019-03-26T07:16:25.941Z,67.50
2019-03-26T07:17:27.213Z,67.50
2019-03-26T07:18:26.279Z,67.50
2019-03-26T07:19:26.448Z,73.13
2019-03-26T07:20:26.618Z,78.75
2019-03-26T07:21:26.788Z,90.00
2019-03-26T07:22:26.956Z,95.63
2019-03-26T07:23:27.132Z,101.25
2019-03-26T07:24:27.293Z,106.88
2019-03-26T07:25:27.468Z,118.13
2019-03-26T07:26:27.635Z,135.00
2019-03-26T07:27:27.803Z,157.50
2019-03-26T07:28:27.973Z,174.38
2019-03-26T07:29:28.143Z,185.63
2019-03-26T07:30:28.309Z,185.63
2019-03-26T07:31:28.482Z,174.38
2019-03-26T07:32:28.652Z,174.38
2019-03-26T07:33:28.819Z,174.38
2019-03-26T07:34:28.991Z,180.00
2019-03-26T07:35:29.158Z,180.00
2019-03-26T07:36:29.330Z,185.63
2019-03-26T07:37:29.498Z,191.25
2019-03-26T07:38:29.668Z,196.88
2019-03-26T07:39:29.836Z,196.88
2019-03-26T07:40:30.008Z,191.25
2019-03-26T07:41:30.171Z,196.88
2019-03-26T07:42:30.340Z,202.50
2019-03-26T07:43:30.508Z,225.00
2019-03-26T07:44:30.679Z,253.13
2019-03-26T07:45:30.857Z,270.00
2019-03-26T07:46:31.021Z,281.25
2019-03-26T07:47:31.187Z,281.25
2019-03-26T07:48:31.356Z,286.88
2019-03-26T07:49:31.526Z,281.25
2019-03-26T07:50:31.696Z,286.88
2019-03-26T07:51:31.864Z,298.13
2019-03-26T07:52:32.032Z,309.38
2019-03-26T07:53:32.206Z,320.63
2019-03-26T07:54:32.742Z,331.88
2019-03-26T07:55:32.541Z,343.13
2019-03-26T07:56:32.711Z,348.75
2019-03-26T07:57:32.878Z,354.38
2019-03-26T07:58:33.437Z,354.38
2019-03-26T07:59:33.217Z,354.38
2019-03-26T08:00:33.382Z,360.00
2019-03-26T08:01:33.552Z,371.25
2019-03-26T08:02:33.721Z,382.50
2019-03-26T08:03:33.892Z,388.13
2019-03-26T08:04:34.060Z,393.75
2019-03-26T08:05:34.238Z,405.00
2019-03-26T08:06:34.399Z,410.63
2019-03-26T08:07:34.570Z,405.00
2019-03-26T08:08:34.739Z,410.63
2019-03-26T08:09:35.061Z,421.88
2019-03-26T08:10:35.082Z,427.50
2019-03-26T08:11:35.248Z,427.50
2019-03-26T08:12:35.419Z,427.50
2019-03-26T08:13:35.616Z,433.13
2019-03-26T08:14:35.766Z,433.13
2019-03-26T08:15:35.936Z,427.50
2019-03-26T08:16:36.104Z,438.75
2019-03-26T08:17:36.284Z,450.00
2019-03-26T08:18:36.441Z,450.00
2019-03-26T08:19:36.609Z,444.38
2019-03-26T08:20:36.784Z,433.13
2019-03-26T08:21:36.951Z,421.88
2019-03-26T08:22:37.121Z,405.00
2019-03-26T08:23:38.412Z,405.00
2019-03-26T08:24:37.459Z,410.63
2019-03-26T08:25:37.627Z,410.63
2019-03-26T08:26:37.795Z,416.25
2019-03-26T08:27:37.963Z,416.25
2019-03-26T08:28:38.134Z,416.25
2019-03-26T08:29:38.303Z,405.00
2019-03-26T08:30:38.474Z,388.13
2019-03-26T08:31:38.644Z,382.50
2019-03-26T08:32:38.816Z,393.75
2019-03-26T08:33:38.981Z,405.00
2019-03-26T08:34:39.152Z,382.50
2019-03-26T08:35:39.323Z,360.00
2019-03-26T08:36:39.490Z,343.13
2019-03-26T08:37:39.659Z,343.13
2019-03-26T08:38:39.828Z,360.00
2019-03-26T08:39:39.998Z,376.88
2019-03-26T08:40:40.167Z,371.25
2019-03-26T08:41:40.342Z,360.00
2019-03-26T08:42:40.507Z,343.13
2019-03-26T08:43:41.093Z,320.63
2019-03-26T08:44:40.848Z,303.75
2019-03-26T08:45:41.014Z,286.88
2019-03-26T08:46:41.183Z,281.25
2019-03-26T08:47:41.352Z,281.25
2019-03-26T08:48:41.520Z,292.50
2019-03-26T08:49:41.690Z,298.13
2019-03-26T08:50:41.864Z,292.50
2019-03-26T08:51:42.031Z,275.63
2019-03-26T08:52:42.199Z,264.38
2019-03-26T08:53:42.367Z,264.38
2019-03-26T08:54:42.537Z,264.38
2019-03-26T08:55:42.705Z,258.75
2019-03-26T08:56:42.878Z,275.63
2019-03-26T08:57:43.045Z,309.38
2019-03-26T08:58:43.214Z,354.38
2019-03-26T08:59:43.388Z,393.75
2019-03-26T09:00:43.556Z,421.88
2019-03-26T09:01:43.726Z,427.50
2019-03-26T09:02:43.898Z,405.00
2019-03-26T09:03:44.065Z,388.13
2019-03-26T09:04:44.235Z,376.88
2019-03-26T09:05:44.403Z,360.00
2019-03-26T09:06:44.573Z,343.13
2019-03-26T09:07:44.742Z,320.63
2019-03-26T09:08:44.911Z,303.75
2019-03-26T09:09:45.082Z,292.50
2019-03-26T09:10:51.611Z,292.50
2019-03-26T09:11:45.419Z,298.13
2019-03-26T09:12:45.589Z,292.50
2019-03-26T09:13:45.754Z,292.50
2019-03-26T09:14:45.928Z,298.13
2019-03-26T09:15:46.100Z,292.50
2019-03-26T09:16:46.269Z,286.88
2019-03-26T09:17:46.441Z,286.88
2019-03-26T09:18:46.609Z,281.25
2019-03-26T09:19:46.779Z,286.88
2019-03-26T09:20:47.022Z,281.25
2019-03-26T09:21:47.119Z,303.75
2019-03-26T09:22:47.291Z,315.00
2019-03-26T09:23:47.460Z,298.13
2019-03-26T09:24:47.636Z,286.88
2019-03-26T09:25:47.800Z,281.25
2019-03-26T09:26:47.969Z,275.63
2019-03-26T09:27:48.138Z,281.25
2019-03-26T09:28:48.320Z,286.88
2019-03-26T09:29:48.478Z,292.50
2019-03-26T09:30:48.647Z,309.38
2019-03-26T09:31:48.817Z,326.25
2019-03-26T09:32:48.986Z,326.25
2019-03-26T09:33:49.155Z,331.88
2019-03-26T09:34:49.326Z,348.75
2019-03-26T09:35:49.499Z,388.13
2019-03-26T09:36:49.669Z,444.38
2019-03-26T09:37:49.838Z,472.50
2019-03-26T09:38:50.012Z,472.50
2019-03-26T09:39:50.177Z,461.25
2019-03-26T09:40:50.351Z,483.75
2019-03-26T09:41:50.517Z,500.63
2019-03-26T09:42:50.684Z,500.63
2019-03-26T09:43:50.853Z,500.63
2019-03-26T09:44:51.024Z,534.38
2019-03-26T09:45:51.195Z,579.38
2019-03-26T09:46:51.364Z,618.75
2019-03-26T09:47:51.533Z,680.63
2019-03-26T09:48:51.704Z,720.00
2019-03-26T09:49:51.876Z,720.00
2019-03-26T09:50:52.045Z,821.25
2019-03-26T09:51:52.214Z,1282.50
2019-03-26T09:52:52.387Z,3273.75
2019-03-26T09:53:52.556Z,3380.63
2019-03-26T09:54:52.725Z,3448.13
2019-03-26T09:55:52.894Z,3448.13
2019-03-26T09:56:53.068Z,3465.00
2019-03-26T09:57:53.238Z,3498.75
2019-03-26T09:58:53.413Z,3498.75
2019-03-26T09:59:53.579Z,3363.75
2019-03-26T10:00:53.750Z,3453.75
2019-03-26T10:01:53.926Z,3566.25
2019-03-26T10:02:54.094Z,3532.50
2019-03-26T10:03:54.272Z,3526.88
2019-03-26T10:04:54.436Z,3588.75
2019-03-26T10:05:54.607Z,3616.88
2019-03-26T10:06:54.779Z,3633.75
2019-03-26T10:07:54.952Z,2936.25
2019-03-26T10:08:55.128Z,1839.38
2019-03-26T10:09:55.298Z,3060.00
2019-03-26T10:10:55.472Z,3943.13
2019-03-26T10:11:55.645Z,3971.25
2019-03-26T10:12:55.818Z,4072.50
2019-03-26T10:13:55.993Z,4134.38
2019-03-26T10:14:56.164Z,4213.13
2019-03-26T10:15:56.341Z,3217.50
2019-03-26T10:16:56.513Z,2458.13
2019-03-26T10:17:56.683Z,4179.38
2019-03-26T10:18:56.861Z,4185.00
2019-03-26T10:19:57.036Z,4162.50
2019-03-26T10:20:57.210Z,4010.63
2019-03-26T10:21:57.384Z,2705.63
2019-03-26T10:22:57.558Z,2272.50
2019-03-26T10:23:57.735Z,3583.13
2019-03-26T10:24:57.910Z,3825.00
2019-03-26T10:25:58.085Z,4494.38
2019-03-26T10:26:58.261Z,2716.88
2019-03-26T10:27:58.436Z,4393.13
2019-03-26T10:28:58.613Z,3397.50
2019-03-26T10:29:58.789Z,3616.88
2019-03-26T10:30:58.965Z,3408.75
2019-03-26T10:31:59.142Z,4539.38
2019-03-26T10:32:59.316Z,4483.13
2019-03-26T10:33:59.493Z,4612.50
2019-03-26T10:34:59.668Z,4663.13
2019-03-26T10:35:59.848Z,3898.13
2019-03-26T10:37:00.019Z,1665.00
2019-03-26T10:38:00.195Z,2210.63
2019-03-26T10:39:05.528Z,1209.38
2019-03-26T10:40:00.549Z,1102.50
2019-03-26T10:41:00.724Z,1085.63
2019-03-26T10:42:00.899Z,1108.13
2019-03-26T10:43:01.075Z,1175.63
2019-03-26T10:44:01.256Z,1248.75
2019-03-26T10:45:01.430Z,1226.25
2019-03-26T10:46:01.605Z,1783.13
2019-03-26T10:47:01.777Z,1271.25
2019-03-26T10:48:01.955Z,1389.38
2019-03-26T10:49:02.136Z,1063.13
2019-03-26T10:50:02.317Z,1023.75
2019-03-26T10:51:02.477Z,1040.63
2019-03-26T10:52:02.654Z,1102.50
2019-03-26T10:53:02.839Z,1951.88
2019-03-26T10:54:03.002Z,922.50
2019-03-26T10:55:03.175Z,793.13
2019-03-26T10:56:03.349Z,804.38
2019-03-26T10:57:03.525Z,669.38
2019-03-26T10:58:03.703Z,680.63
2019-03-26T10:59:04.277Z,748.13
2019-03-26T11:00:04.046Z,787.50
2019-03-26T11:01:04.222Z,781.88
2019-03-26T11:02:04.401Z,826.88
2019-03-26T11:03:04.568Z,810.00
2019-03-26T11:04:07.565Z,821.25
2019-03-26T11:05:04.915Z,1344.38
2019-03-26T11:06:05.089Z,798.75
2019-03-26T11:07:05.269Z,652.50
2019-03-26T11:08:05.434Z,613.13
2019-03-26T11:09:18.857Z,658.13
2019-03-26T11:10:05.783Z,691.88
2019-03-26T11:11:05.955Z,849.38
2019-03-26T11:12:06.130Z,579.38
2019-03-26T11:13:06.333Z,562.50
2019-03-26T11:14:06.475Z,624.38
2019-03-26T11:15:06.649Z,725.63
2019-03-26T11:16:06.819Z,883.13
2019-03-26T11:17:06.992Z,1198.13
2019-03-26T11:18:07.164Z,3003.75
2019-03-26T11:19:07.340Z,4882.50
2019-03-26T11:20:07.511Z,5045.63
2019-03-26T11:21:07.681Z,4933.13
2019-03-26T11:22:07.854Z,4927.50
2019-03-26T11:23:08.025Z,4173.75
2019-03-26T11:24:08.200Z,3920.63
2019-03-26T11:25:08.371Z,2835.00
2019-03-26T11:26:08.543Z,5203.13
2019-03-26T11:27:08.719Z,3273.75
2019-03-26T11:28:08.894Z,2053.13
2019-03-26T11:29:09.067Z,1766.25
2019-03-26T11:30:09.244Z,1462.50
2019-03-26T11:31:09.416Z,1288.13
2019-03-26T11:32:09.589Z,1198.13
2019-03-26T11:33:09.763Z,1085.63
2019-03-26T11:34:09.936Z,995.63
2019-03-26T11:35:10.114Z,905.63
2019-03-26T11:36:10.283Z,810.00
2019-03-26T11:37:10.455Z,759.38
2019-03-26T11:38:10.639Z,714.38
2019-03-26T11:39:10.808Z,691.88
2019-03-26T11:40:10.984Z,686.25
2019-03-26T11:41:11.162Z,691.88
2019-03-26T11:42:11.335Z,770.63
2019-03-26T11:43:11.511Z,956.25
2019-03-26T11:44:11.682Z,804.38
2019-03-26T11:45:11.859Z,798.75
2019-03-26T11:46:12.033Z,821.25
2019-03-26T11:47:12.210Z,860.63
2019-03-26T11:48:12.382Z,922.50
2019-03-26T11:49:12.557Z,866.25
2019-03-26T11:50:12.728Z,742.50
2019-03-26T11:51:12.904Z,680.63
2019-03-26T11:52:13.077Z,635.63
2019-03-26T11:53:13.251Z,613.13
2019-03-26T11:54:13.424Z,596.25
2019-03-26T11:55:13.596Z,596.25
2019-03-26T11:56:13.768Z,596.25
2019-03-26T11:57:13.941Z,596.25
2019-03-26T11:58:14.117Z,607.50
2019-03-26T11:59:14.287Z,618.75
2019-03-26T12:00:14.459Z,624.38
2019-03-26T12:01:14.631Z,652.50
2019-03-26T12:02:14.918Z,703.13
2019-03-26T12:03:14.977Z,843.75
2019-03-26T12:04:15.149Z,984.38
2019-03-26T12:05:15.322Z,1136.25
2019-03-26T12:06:15.494Z,995.63
2019-03-26T12:07:15.668Z,843.75
2019-03-26T12:08:15.839Z,810.00
2019-03-26T12:09:16.012Z,810.00
2019-03-26T12:10:16.185Z,826.88
2019-03-26T12:11:16.357Z,793.13
2019-03-26T12:12:16.531Z,894.38
2019-03-26T12:13:16.706Z,720.00
2019-03-26T12:14:16.876Z,697.50
2019-03-26T12:15:17.047Z,703.13
2019-03-26T12:16:17.229Z,720.00
2019-03-26T12:17:17.400Z,708.75
2019-03-26T12:18:17.574Z,675.00
2019-03-26T12:19:17.747Z,624.38
2019-03-26T12:20:17.924Z,562.50
2019-03-26T12:21:18.094Z,495.00
2019-03-26T12:22:18.267Z,444.38
2019-03-26T12:23:18.443Z,410.63
2019-03-26T12:24:18.613Z,382.50
2019-03-26T12:25:18.790Z,365.63
2019-03-26T12:26:18.959Z,331.88
2019-03-26T12:27:19.134Z,303.75
2019-03-26T12:28:19.310Z,281.25
2019-03-26T12:29:19.480Z,264.38
2019-03-26T12:30:19.651Z,258.75
2019-03-26T12:31:19.823Z,264.38
2019-03-26T12:32:19.996Z,281.25
2019-03-26T12:33:20.169Z,298.13
2019-03-26T12:34:20.343Z,315.00
2019-03-26T12:35:20.514Z,309.38
2019-03-26T12:36:20.686Z,309.38
2019-03-26T12:37:20.861Z,320.63
2019-03-26T12:38:21.030Z,331.88
2019-03-26T12:39:21.205Z,343.13
2019-03-26T12:40:21.375Z,348.75
2019-03-26T12:41:21.547Z,348.75
2019-03-26T12:42:21.718Z,354.38
2019-03-26T12:43:21.889Z,348.75
2019-03-26T12:44:22.063Z,337.50
2019-03-26T12:45:22.236Z,326.25
2019-03-26T12:46:22.405Z,315.00
2019-03-26T12:47:22.578Z,309.38
2019-03-26T12:48:22.749Z,309.38
2019-03-26T12:49:22.921Z,303.75
2019-03-26T12:50:23.091Z,298.13
2019-03-26T12:51:23.266Z,298.13
2019-03-26T12:52:23.437Z,309.38
2019-03-26T12:53:23.608Z,315.00
2019-03-26T12:54:23.848Z,315.00
2019-03-26T12:55:23.967Z,303.75
2019-03-26T12:56:24.139Z,298.13
2019-03-26T12:57:24.379Z,303.75
2019-03-26T12:58:31.568Z,315.00
2019-03-26T12:59:26.657Z,331.88
2019-03-26T13:00:24.855Z,337.50
2019-03-26T13:01:25.021Z,326.25
2019-03-26T13:02:25.194Z,320.63
2019-03-26T13:03:25.365Z,320.63
2019-03-26T13:04:25.534Z,309.38
2019-03-26T13:05:25.704Z,303.75
2019-03-26T13:06:25.876Z,303.75
2019-03-26T13:07:26.046Z,309.38
2019-03-26T13:08:26.217Z,309.38
2019-03-26T13:09:26.388Z,303.75
2019-03-26T13:10:26.559Z,303.75
2019-03-26T13:11:26.729Z,303.75
2019-03-26T13:12:26.901Z,303.75
2019-03-26T13:13:27.072Z,303.75
2019-03-26T13:14:27.241Z,292.50
2019-03-26T13:15:27.413Z,270.00
2019-03-26T13:16:27.585Z,258.75
2019-03-26T13:17:27.756Z,264.38
2019-03-26T13:18:27.932Z,281.25
2019-03-26T13:19:28.097Z,286.88
2019-03-26T13:20:28.268Z,292.50
2019-03-26T13:21:28.445Z,303.75
2019-03-26T13:22:28.616Z,315.00
2019-03-26T13:23:28.786Z,331.88
2019-03-26T13:24:28.957Z,343.13
2019-03-26T13:25:29.129Z,348.75
2019-03-26T13:26:29.299Z,354.38
2019-03-26T13:27:29.471Z,348.75
2019-03-26T13:28:29.643Z,343.13
2019-03-26T13:29:29.813Z,337.50
2019-03-26T13:30:29.988Z,326.25
2019-03-26T13:31:30.156Z,315.00
2019-03-26T13:32:30.325Z,309.38
2019-03-26T13:33:30.497Z,298.13
2019-03-26T13:34:30.667Z,286.88
2019-03-26T13:35:30.837Z,286.88
2019-03-26T13:36:31.008Z,303.75
2019-03-26T13:37:31.181Z,320.63
2019-03-26T13:38:31.354Z,348.75
2019-03-26T13:39:31.527Z,388.13
2019-03-26T13:40:31.697Z,433.13
2019-03-26T13:41:31.869Z,461.25
2019-03-26T13:42:32.037Z,466.88
2019-03-26T13:43:32.208Z,444.38
2019-03-26T13:44:32.380Z,427.50
2019-03-26T13:45:32.928Z,421.88
2019-03-26T13:46:32.723Z,455.63
2019-03-26T13:47:32.892Z,500.63
2019-03-26T13:48:33.065Z,489.38
2019-03-26T13:49:33.236Z,450.00
2019-03-26T13:50:33.407Z,405.00
2019-03-26T13:51:33.579Z,371.25
2019-03-26T13:52:33.749Z,337.50
2019-03-26T13:53:33.921Z,315.00
2019-03-26T13:54:34.092Z,303.75
2019-03-26T13:55:34.265Z,281.25
2019-03-26T13:56:34.433Z,264.38
2019-03-26T13:57:34.602Z,253.13
2019-03-26T13:58:34.774Z,253.13
2019-03-26T13:59:34.946Z,264.38
2019-03-26T14:00:35.117Z,275.63
2019-03-26T14:01:35.291Z,275.63
2019-03-26T14:02:35.460Z,275.63
2019-03-26T14:03:35.636Z,281.25
2019-03-26T14:04:35.802Z,286.88
2019-03-26T14:05:35.973Z,292.50
2019-03-26T14:06:36.143Z,303.75
2019-03-26T14:07:36.316Z,303.75
2019-03-26T14:08:36.491Z,298.13
2019-03-26T14:09:36.659Z,298.13
2019-03-26T14:10:41.097Z,298.13
2019-03-26T14:11:37.002Z,298.13
2019-03-26T14:12:37.175Z,309.38
2019-03-26T14:13:37.345Z,309.38
2019-03-26T14:14:37.517Z,298.13
2019-03-26T14:15:37.685Z,286.88
2019-03-26T14:16:37.858Z,281.25
2019-03-26T14:17:38.029Z,270.00
2019-03-26T14:18:38.197Z,264.38
2019-03-26T14:19:38.370Z,258.75
2019-03-26T14:20:38.543Z,253.13
2019-03-26T14:21:38.715Z,241.88
2019-03-26T14:22:38.885Z,236.25
2019-03-26T14:23:39.057Z,241.88
2019-03-26T14:24:39.228Z,247.50
2019-03-26T14:25:39.402Z,247.50
2019-03-26T14:26:39.570Z,247.50
2019-03-26T14:27:39.743Z,247.50
2019-03-26T14:28:39.914Z,247.50
2019-03-26T14:29:40.088Z,253.13
2019-03-26T14:30:40.254Z,241.88
2019-03-26T14:31:40.425Z,230.63
2019-03-26T14:32:40.594Z,225.00
2019-03-26T14:33:40.762Z,230.63
2019-03-26T14:34:40.932Z,236.25
2019-03-26T14:35:41.105Z,230.63
2019-03-26T14:36:41.285Z,219.38
2019-03-26T14:37:51.101Z,202.50
2019-03-26T14:38:41.618Z,196.88
2019-03-26T14:39:41.789Z,191.25
2019-03-26T14:40:53.970Z,191.25
2019-03-26T14:41:42.132Z,191.25
2019-03-26T14:42:42.303Z,191.25
2019-03-26T14:43:42.477Z,196.88
2019-03-26T14:44:42.649Z,196.88
2019-03-26T14:45:42.821Z,202.50
2019-03-26T14:46:42.991Z,208.13
2019-03-26T14:47:43.162Z,213.75
2019-03-26T14:48:43.335Z,208.13
2019-03-26T14:49:43.510Z,196.88
2019-03-26T14:50:43.676Z,191.25
2019-03-26T14:51:43.846Z,185.63
2019-03-26T14:52:44.020Z,180.00
2019-03-26T14:53:44.188Z,174.38
2019-03-26T14:54:44.361Z,174.38
2019-03-26T14:55:44.532Z,174.38
2019-03-26T14:56:44.699Z,174.38
2019-03-26T14:57:44.868Z,185.63
2019-03-26T14:58:45.039Z,196.88
2019-03-26T14:59:45.209Z,213.75
2019-03-26T15:00:45.383Z,213.75
2019-03-26T15:01:45.552Z,213.75
2019-03-26T15:02:45.724Z,219.38
2019-03-26T15:03:45.895Z,236.25
2019-03-26T15:04:46.063Z,253.13
2019-03-26T15:05:46.237Z,258.75
2019-03-26T15:06:46.404Z,253.13
2019-03-26T15:07:46.576Z,253.13
2019-03-26T15:08:46.746Z,253.13
2019-03-26T15:09:46.918Z,270.00
2019-03-26T15:10:47.086Z,286.88
2019-03-26T15:11:47.259Z,298.13
2019-03-26T15:12:47.430Z,303.75
2019-03-26T15:13:49.507Z,303.75
2019-03-26T15:14:47.775Z,298.13
2019-03-26T15:15:47.943Z,298.13
2019-03-26T15:16:48.113Z,298.13
2019-03-26T15:17:48.287Z,298.13
2019-03-26T15:18:48.457Z,292.50
2019-03-26T15:19:48.626Z,286.88
2019-03-26T15:20:48.797Z,281.25
2019-03-26T15:21:48.967Z,275.63
2019-03-26T15:22:49.136Z,275.63
2019-03-26T15:23:49.308Z,275.63
2019-03-26T15:24:49.478Z,281.25
2019-03-26T15:25:49.649Z,281.25
2019-03-26T15:26:49.821Z,270.00
2019-03-26T15:27:49.992Z,247.50
2019-03-26T15:28:50.163Z,219.38
2019-03-26T15:29:50.336Z,196.88
2019-03-26T15:30:50.507Z,180.00
2019-03-26T15:31:50.679Z,168.75
2019-03-26T15:32:50.850Z,168.75
2019-03-26T15:33:51.022Z,174.38
2019-03-26T15:34:51.197Z,174.38
2019-03-26T15:35:51.369Z,146.25
2019-03-26T15:36:51.542Z,129.38
2019-03-26T15:37:51.713Z,118.13
2019-03-26T15:38:51.888Z,123.75
2019-03-26T15:39:52.067Z,123.75
2019-03-26T15:40:52.228Z,123.75
2019-03-26T15:41:52.416Z,129.38
2019-03-26T15:42:52.568Z,118.13
2019-03-26T15:43:52.744Z,106.88
2019-03-26T15:44:52.912Z,101.25
2019-03-26T15:45:53.083Z,101.25
2019-03-26T15:46:53.252Z,106.88
2019-03-26T15:47:53.422Z,112.50
2019-03-26T15:48:53.594Z,106.88
2019-03-26T15:49:53.765Z,101.25
2019-03-26T15:50:53.936Z,101.25
2019-03-26T15:51:54.107Z,101.25
2019-03-26T15:52:54.280Z,106.88
2019-03-26T15:53:54.452Z,106.88
2019-03-26T15:54:54.620Z,101.25
2019-03-26T15:55:54.793Z,112.50
2019-03-26T15:56:54.963Z,140.63
2019-03-26T15:57:55.134Z,168.75
2019-03-26T15:58:55.305Z,196.88
2019-03-26T15:59:55.472Z,213.75
2019-03-26T16:00:55.647Z,208.13
2019-03-26T16:01:55.815Z,202.50
2019-03-26T16:02:55.987Z,213.75
2019-03-26T16:03:56.156Z,213.75
2019-03-26T16:04:56.325Z,208.13
2019-03-26T16:05:56.497Z,230.63
2019-03-26T16:06:56.667Z,258.75
2019-03-26T16:07:56.838Z,275.63
2019-03-26T16:08:57.022Z,270.00
2019-03-26T16:09:57.189Z,253.13
2019-03-26T16:10:57.358Z,230.63
2019-03-26T16:11:57.529Z,219.38
2019-03-26T16:12:57.701Z,208.13
2019-03-26T16:13:57.872Z,213.75
2019-03-26T16:14:58.041Z,208.13
2019-03-26T16:15:58.211Z,196.88
2019-03-26T16:16:58.383Z,185.63
2019-03-26T16:17:58.554Z,185.63
2019-03-26T16:18:58.724Z,180.00
2019-03-26T16:19:58.896Z,180.00
2019-03-26T16:20:59.069Z,191.25
2019-03-26T16:21:59.238Z,213.75
2019-03-26T16:22:59.408Z,219.38
2019-03-26T16:23:59.579Z,241.88
2019-03-26T16:24:59.751Z,241.88
2019-03-26T16:25:59.921Z,219.38
2019-03-26T16:27:00.091Z,219.38
2019-03-26T16:28:00.264Z,219.38
2019-03-26T16:29:00.431Z,213.75
2019-03-26T16:30:00.603Z,202.50
2019-03-26T16:31:00.771Z,196.88
2019-03-26T16:32:00.943Z,196.88
2019-03-26T16:33:01.118Z,196.88
2019-03-26T16:34:01.282Z,208.13
2019-03-26T16:35:01.457Z,213.75
2019-03-26T16:36:01.622Z,202.50
2019-03-26T16:37:01.792Z,185.63
2019-03-26T16:38:01.964Z,163.13
2019-03-26T16:39:02.149Z,146.25
2019-03-26T16:40:02.298Z,140.63
2019-03-26T16:41:02.468Z,140.63
2019-03-26T16:42:02.636Z,140.63
2019-03-26T16:43:02.805Z,135.00
2019-03-26T16:44:02.977Z,123.75
2019-03-26T16:45:03.147Z,118.13
2019-03-26T16:46:03.318Z,118.13
2019-03-26T16:47:03.489Z,118.13
2019-03-26T16:48:03.663Z,123.75
2019-03-26T16:49:03.828Z,129.38
2019-03-26T16:50:04.000Z,135.00
2019-03-26T16:51:04.179Z,140.63
2019-03-26T16:52:04.341Z,140.63
2019-03-26T16:53:04.509Z,135.00
2019-03-26T16:54:04.685Z,135.00
2019-03-26T16:55:04.849Z,140.63
2019-03-26T16:56:05.021Z,140.63
2019-03-26T16:57:05.190Z,146.25
2019-03-26T16:58:05.363Z,146.25
2019-03-26T16:59:05.532Z,146.25
2019-03-26T17:00:05.703Z,135.00
2019-03-26T17:01:05.874Z,123.75
2019-03-26T17:02:06.041Z,118.13
2019-03-26T17:03:06.214Z,118.13
2019-03-26T17:04:06.385Z,118.13
2019-03-26T17:05:06.558Z,118.13
2019-03-26T17:06:06.728Z,112.50
2019-03-26T17:07:06.897Z,101.25
2019-03-26T17:08:07.071Z,90.00
2019-03-26T17:09:07.240Z,84.38
2019-03-26T17:10:07.411Z,78.75
2019-03-26T17:11:07.581Z,73.13
2019-03-26T17:12:07.754Z,67.50
2019-03-26T17:13:07.925Z,61.88
2019-03-26T17:14:08.094Z,56.25
2019-03-26T17:15:08.268Z,50.63
2019-03-26T17:16:08.437Z,45.00
2019-03-26T17:17:08.607Z,33.75
2019-03-26T17:18:08.780Z,33.75
2019-03-26T17:19:08.952Z,33.75
2019-03-26T17:20:09.120Z,33.75
2019-03-26T17:21:09.293Z,28.13
2019-03-26T17:22:09.463Z,28.13
2019-03-26T17:23:09.634Z,28.13
2019-03-26T17:24:09.862Z,28.13
2019-03-26T17:25:09.971Z,28.13
2019-03-26T17:26:10.141Z,28.13
2019-03-26T17:27:10.338Z,28.13
2019-03-26T17:28:10.483Z,22.50
2019-03-26T17:29:10.652Z,16.88
2019-03-26T17:30:10.823Z,16.88
2019-03-26T17:31:10.994Z,11.25
2019-03-26T17:32:11.165Z,11.25
2019-03-26T17:33:11.337Z,5.63